CSL Niagara — VCGJ — position and weather

sailwx.info

Track history (hours):
 
Tides and Currents Weather Stations Pressure Air Temp Water Temp Dewpoint Dewpoint Depression Visibility Wind Speed Wind Dir Waves Ship Positions

CSL Niagara

ex J. W. McGiffin

Last reported at 2016-Aug-24 07:22 UTC. Time now 2016-Aug-25 23:42 UTC.
Position N 46°15' W 072°43'.

Length 225 m; draft 8.1 m.

Type: Cargo ship. MMSI: 316029000.

Date/timePositionNaut miles runAvg speedWind from/ knotsBaromVisibWave heightAir tempDewpointWater temp
2016-Aug-24 07:22N 46°15' W 072°43'1012.4
2016-Aug-24 06:33N 46°10' W 072°56'2411.8
2016-Aug-24 04:33N 45°51' W 073°16'1312.6
2016-Aug-24 03:33N 45°41' W 073°27'1110.7
2016-Aug-24 02:33N 45°31' W 073°31'1 1.4
2016-Aug-24 01:34N 45°30' W 073°31'5 3.5
2016-Aug-24 00:15N 45°25' W 073°31'2 3.0
2016-Aug-23 23:29N 45°24' W 073°34'1 1.3
2016-Aug-23 22:33N 45°24' W 073°36'4 4.1
2016-Aug-23 21:34N 45°25' W 073°42'7 7.2
2016-Aug-23 20:33N 45°22' W 073°50'4 4.2
2016-Aug-23 19:33N 45°19' W 073°55'1 0.8
2016-Aug-23 18:33N 45°18' W 073°56'0 0.4
2016-Aug-23 17:33N 45°18' W 073°56'3 3.3
2016-Aug-23 16:34N 45°15' W 073°58'22 9.9
2016-Aug-23 14:19N 45°07' W 074°28'93 7.3
2016-Aug-23 01:34N 44°12' W 076°14'1111.2
2016-Aug-23 00:34N 44°05' W 076°25'13111.5
2016-Aug-22 13:12N 43°15' W 079°13'2 3.5
2016-Aug-22 12:33N 43°13' W 079°13'0 0.5
2016-Aug-22 11:33N 43°13' W 079°13'1 0.9
2016-Aug-22 10:21N 43°12' W 079°12'  
2016-Aug-17 07:33N 43°13' W 079°13'1 0.6
2016-Aug-17 06:33N 43°14' W 079°13'135 4.1
2016-Aug-15 21:34N 44°08' W 076°22'1 0.5
2016-Aug-15 20:34N 44°08' W 076°21'119 6.8
2016-Aug-15 03:07N 45°13' W 074°02'5 8.4
2016-Aug-15 02:33N 45°17' W 073°57'2 2.1
2016-Aug-15 01:33N 45°19' W 073°55'1 0.7
2016-Aug-15 00:33N 45°19' W 073°55'5 4.7
2016-Aug-14 23:33N 45°22' W 073°50'7 7.1
2016-Aug-14 22:33N 45°25' W 073°41'5 4.5
2016-Aug-14 21:33N 45°24' W 073°34'1 1.2
2016-Aug-14 20:33N 45°24' W 073°32'10 3.3
2016-Aug-14 17:33N 45°34' W 073°30'8 8.0
2016-Aug-14 16:34N 45°42' W 073°27'9 9.0
2016-Aug-14 15:33N 45°49' W 073°19'9 8.8
2016-Aug-14 14:33N 45°57' W 073°13'9 8.7
2016-Aug-14 13:34N 46°04' W 073°05'9 8.6
2016-Aug-14 12:34N 46°10' W 072°56'10 9.5
2016-Aug-14 11:33N 46°15' W 072°45'  
Track history (hours):
 
Tides and Currents Weather Stations Pressure Air Temp Water Temp Dewpoint Dewpoint Depression Visibility Wind Speed Wind Dir Waves Ship Positions

CSL Niagara

ex J. W. McGiffin

Last reported at 2016-Aug-24 07:22 UTC. Time now 2016-Aug-25 23:42 UTC.
Position N 46°15' W 072°43'.

Length 225 m; draft 8.1 m.

Type: Cargo ship. MMSI: 316029000.

Date/timePositionNaut miles runAvg speedWind from/ knotsBaromVisibWave heightAir tempDewpointWater temp
2016-Aug-24 07:22N 46°15' W 072°43'1012.4
2016-Aug-24 06:33N 46°10' W 072°56'2411.8
2016-Aug-24 04:33N 45°51' W 073°16'1312.6
2016-Aug-24 03:33N 45°41' W 073°27'1110.7
2016-Aug-24 02:33N 45°31' W 073°31'1 1.4
2016-Aug-24 01:34N 45°30' W 073°31'5 3.5
2016-Aug-24 00:15N 45°25' W 073°31'2 3.0
2016-Aug-23 23:29N 45°24' W 073°34'1 1.3
2016-Aug-23 22:33N 45°24' W 073°36'4 4.1
2016-Aug-23 21:34N 45°25' W 073°42'7 7.2
2016-Aug-23 20:33N 45°22' W 073°50'4 4.2
2016-Aug-23 19:33N 45°19' W 073°55'1 0.8
2016-Aug-23 18:33N 45°18' W 073°56'0 0.4
2016-Aug-23 17:33N 45°18' W 073°56'3 3.3
2016-Aug-23 16:34N 45°15' W 073°58'22 9.9
2016-Aug-23 14:19N 45°07' W 074°28'93 7.3
2016-Aug-23 01:34N 44°12' W 076°14'1111.2
2016-Aug-23 00:34N 44°05' W 076°25'13111.5
2016-Aug-22 13:12N 43°15' W 079°13'2 3.5
2016-Aug-22 12:33N 43°13' W 079°13'0 0.5
2016-Aug-22 11:33N 43°13' W 079°13'1 0.9
2016-Aug-22 10:21N 43°12' W 079°12'  
2016-Aug-17 07:33N 43°13' W 079°13'1 0.6
2016-Aug-17 06:33N 43°14' W 079°13'135 4.1
2016-Aug-15 21:34N 44°08' W 076°22'1 0.5
2016-Aug-15 20:34N 44°08' W 076°21'119 6.8
2016-Aug-15 03:07N 45°13' W 074°02'5 8.4
2016-Aug-15 02:33N 45°17' W 073°57'2 2.1
2016-Aug-15 01:33N 45°19' W 073°55'1 0.7
2016-Aug-15 00:33N 45°19' W 073°55'5 4.7
2016-Aug-14 23:33N 45°22' W 073°50'7 7.1
2016-Aug-14 22:33N 45°25' W 073°41'5 4.5
2016-Aug-14 21:33N 45°24' W 073°34'1 1.2
2016-Aug-14 20:33N 45°24' W 073°32'10 3.3
2016-Aug-14 17:33N 45°34' W 073°30'8 8.0
2016-Aug-14 16:34N 45°42' W 073°27'9 9.0
2016-Aug-14 15:33N 45°49' W 073°19'9 8.8
2016-Aug-14 14:33N 45°57' W 073°13'9 8.7
2016-Aug-14 13:34N 46°04' W 073°05'9 8.6
2016-Aug-14 12:34N 46°10' W 072°56'10 9.5
2016-Aug-14 11:33N 46°15' W 072°45'  

Dump ship's entire track history